PREVISON - TAF: TAF - Paris-Aeroport Charles De Gaulle, France du: 20180817170000h UTC
TypeJUTCVentVisi. H.CouvertureMétéo
PREVISION 171700 181700 320° 13 km/h CAVOK / CAVOK

PREVISION brut - TAF LFPG 171700Z 1718/1824 34008KT CAVOK TX25/1815Z TN12/1805Z= TAF LFPO 171700Z 1718/1824 32007KT CAVOK


METAR brut: LFPG 171900Z 35006KT CAVOK 21/10 Q1021 NOSIG
Vent: Paris-Aeroport Charles De Gaulle, France Météo: Paris-Aeroport Charles De Gaulle, France
METAR décodé: Paris-Aeroport Charles De Gaulle, France.
Up : 17 mn à 19:00 UTC.
Vent : 11 km/h >> Nord (350°).
Visibilité Hor. : plus de 10 km.
Nuages : (CAVOK) aucun nuages sous 1500 m, pas de cumulonimbus et pas de phénomène significatif. .
Température : 21 °C. P. rosée. : 10 °C.
Humidité : 49.4%.
Pression : 1021 hPa.
Météo : pas de changement significatif dans les deux prochaines heures..